Terminal Aerodrome Forecast
Issued by NWS

Home | Current Version | Previous Version | Text Only | Print | Product List | Glossary On
Versions: 1 2 3 4 5 6 7 8 9 10 11 12 13
000
FTUS46 KMTR 051700
TAFSNS
TAF
KSNS 051739Z 0518/0618 22006KT P6SM OVC022
     FM052000 28015G20KT P6SM SCT024
     FM060200 25010G15KT P6SM OVC018
     FM061000 25014G18KT P6SM OVC015=

USA.gov is the U.S. government's official web portal to all federal, state and local government web resources and services.